SBBRSBGO

Guest
Details From SBBR - Brasilia Presidente Juscelino Kubitsch
To SBGO - Santo Genoveva
Flight Number -
Tags generated
Created
Modified
Stats Distance 88 nm / 163 km
Max Altitude 0 ft / 0 m
Waypoints 2
Social Downloads 0
Likes 0
Share VATSIM

Download

Looking for another format? Having issues loading an existing format? Contact us
Advertisement - Login to hide

Notes

Basic altitude profile: - Ascent Rate: 200ft/min - Ascent Speed: 90kts - Cruise Altitude: 6500ft - Cruise Speed: 100kts - Descent Rate: 500ft/min - Descent Speed: 100kts Options: - Use NATs: no - Use PACOTS: no - Use low airways: no - Use high airways: no

Route

SBBR SBGO

ID Type Via Altitude Latitude Longitude Leg Dist Tot Dist Heading (true) Name
O SBBR APT - 0 ft / 0 m -15.87110˚ -47.91863˚ - 0 nm - Brasilia Presidente Juscelino Kubitsch
O SBGO APT - 0 ft / 0 m -16.63203˚ -49.22069˚ 87 nm 87 nm 238° / 239° Santo Genoveva

Altitude Profile

Advertisement - Login to hide

SBBR

Details ICAO SBBR (BSB)
Name Brasilia Presidente Juscelino Kubitsch
Region Brazil
Timezone America/Sao_Paulo (UTC-3.0)
Stats Elevation 3,479 ft / 1,060 m (AMSL)
Location -15.871101° -47.918626°
Runways 2
Magnetic Variation 21.595° W

METAR

SBBR 272000Z 12008KT 9999 FEW042 22/12 Q1022

Decode

TAF

TAF SBBR 271600Z 2718/2818 10008KT 9999 SCT028 FEW035TCU TX24/2718Z TN13/2808Z BECMG 2722/2724 11007KT CAVOK PROB30 2809/2812 BKN010 BECMG 2816/2818 09010KT 9999 FEW035 RMK PDS

Decode

Departure Runways

ID Width Length Bearing (true) Bearing (mag) Surface Threshold Offset Overrun Length
11L 148 ft / 45 m 10,493 ft / 3,198 m 86.35° 107.94° Asphalt 0 ft / 0 m 200 ft / 61 m
11R 148 ft / 45 m 10,839 ft / 3,304 m 86.00° 107.59° Asphalt 2,635 ft / 803 m 200 ft / 61 m
29L 148 ft / 45 m 10,839 ft / 3,304 m 265.99° 287.58° Asphalt 0 ft / 0 m 200 ft / 61 m
29R 148 ft / 45 m 10,493 ft / 3,198 m 266.34° 287.93° Asphalt 0 ft / 0 m 200 ft / 61 m

SBGO

Details ICAO SBGO (GYN)
Name Santo Genoveva
Region Brazil
Timezone America/Sao_Paulo (UTC-3.0)
Stats Elevation 2,450 ft / 747 m (AMSL)
Location -16.632032° -49.220686°
Runways 1
Magnetic Variation 21.040° W

METAR

SBGO 272000Z 09011KT CAVOK 26/11 Q1020

Decode

TAF

TAF SBGO 271600Z 2718/2818 11006KT 9999 SCT040 TX28/2718Z TN15/2808Z BECMG 2722/2724 13005KT CAVOK BECMG 2816/2818 09010KT 9999 FEW040 RMK PDS

Decode

Destination Runways

ID Width Length Bearing (true) Bearing (mag) Surface Threshold Offset Overrun Length
14 148 ft / 45 m 8,208 ft / 2,502 m 120.42° 141.46° Asphalt 0 ft / 0 m 0 ft / 0 m
32 148 ft / 45 m 8,208 ft / 2,502 m 300.41° 321.45° Asphalt 980 ft / 299 m 0 ft / 0 m

Popular Alternatives